createdAt,value
2018-07-11T00:00:48.018Z,15.04
2018-07-11T00:03:18.065Z,15.13
2018-07-11T00:05:46.713Z,15.18
2018-07-11T00:08:15.439Z,15.09
2018-07-11T00:10:44.150Z,15.20
2018-07-11T00:13:12.771Z,15.13
2018-07-11T00:15:41.387Z,15.10
2018-07-11T00:18:10.039Z,15.17
2018-07-11T00:20:38.793Z,15.21
2018-07-11T00:23:07.984Z,15.11
2018-07-11T00:25:36.908Z,15.20
2018-07-11T00:28:05.876Z,15.24
2018-07-11T00:30:34.736Z,15.02
2018-07-11T00:33:03.536Z,15.20
2018-07-11T00:35:32.295Z,15.24
2018-07-11T00:38:00.992Z,15.19
2018-07-11T00:40:29.625Z,14.98
2018-07-11T00:42:58.347Z,15.17
2018-07-11T00:45:27.171Z,14.97
2018-07-11T00:47:55.840Z,14.69
2018-07-11T00:50:24.482Z,14.71
2018-07-11T00:52:53.439Z,14.84
2018-07-11T00:55:22.403Z,15.00
2018-07-11T00:57:51.187Z,15.06
2018-07-11T01:00:20.295Z,15.28
2018-07-11T01:02:49.063Z,15.36
2018-07-11T01:05:17.810Z,15.44
2018-07-11T01:07:46.694Z,15.55
2018-07-11T01:10:15.451Z,15.68
2018-07-11T01:12:44.350Z,15.86
2018-07-11T01:15:13.356Z,15.92
2018-07-11T01:17:48.344Z,15.85
2018-07-11T01:20:17.347Z,15.95
2018-07-11T01:22:46.289Z,15.97
2018-07-11T01:25:14.921Z,15.87
2018-07-11T01:27:43.472Z,15.84
2018-07-11T01:30:12.127Z,16.02
2018-07-11T01:32:40.968Z,15.80
2018-07-11T01:35:09.728Z,15.73
2018-07-11T01:37:38.668Z,15.50
2018-07-11T01:40:07.220Z,15.53
2018-07-11T01:42:35.818Z,15.25
2018-07-11T01:45:04.406Z,15.46
2018-07-11T01:47:32.988Z,15.65
2018-07-11T01:50:02.014Z,15.69
2018-07-11T01:52:41.755Z,15.89
2018-07-11T01:55:10.657Z,15.85
2018-07-11T01:57:39.240Z,15.97
2018-07-11T02:00:08.018Z,16.11
2018-07-11T02:02:37.032Z,16.26
2018-07-11T02:05:05.690Z,16.24
2018-07-11T02:07:34.535Z,16.35
2018-07-11T02:10:03.324Z,16.34
2018-07-11T02:12:32.018Z,16.48
2018-07-11T02:15:07.756Z,16.41
2018-07-11T02:17:38.293Z,16.42
2018-07-11T02:20:09.084Z,16.58
2018-07-11T02:22:39.501Z,16.65
2018-07-11T02:25:08.457Z,16.59
2018-07-11T02:27:37.798Z,16.61
2018-07-11T02:30:06.472Z,16.69
2018-07-11T02:32:35.489Z,16.77
2018-07-11T02:35:04.144Z,16.79
2018-07-11T02:37:32.910Z,16.64
2018-07-11T02:40:01.907Z,16.69
2018-07-11T02:42:30.592Z,16.53
2018-07-11T02:44:59.280Z,16.45
2018-07-11T02:47:33.638Z,16.72
2018-07-11T02:50:02.277Z,16.85
2018-07-11T02:52:30.865Z,16.79
2018-07-11T02:54:59.926Z,16.73
2018-07-11T02:57:28.560Z,16.69
2018-07-11T02:59:57.128Z,16.58
2018-07-11T03:02:25.973Z,16.69
2018-07-11T03:04:54.694Z,16.82
2018-07-11T03:07:23.301Z,16.66
2018-07-11T03:09:52.481Z,16.71
2018-07-11T03:12:21.098Z,16.72
2018-07-11T03:14:51.645Z,16.64
2018-07-11T03:17:20.645Z,16.58
2018-07-11T03:19:49.239Z,16.57
2018-07-11T03:22:18.865Z,16.65
2018-07-11T03:24:47.488Z,16.69
2018-07-11T03:27:16.277Z,16.65
2018-07-11T03:29:45.104Z,16.62
2018-07-11T03:32:13.740Z,16.60
2018-07-11T03:34:42.312Z,16.50
2018-07-11T03:37:11.448Z,16.19
2018-07-11T03:39:41.181Z,16.05
2018-07-11T03:42:09.856Z,16.35
2018-07-11T03:44:38.889Z,16.43
2018-07-11T03:47:07.725Z,16.56
2018-07-11T03:49:36.422Z,16.29
2018-07-11T03:52:05.412Z,16.46
2018-07-11T03:54:34.898Z,16.51
2018-07-11T03:57:03.453Z,16.19
2018-07-11T03:59:32.320Z,16.15
2018-07-11T04:02:00.928Z,16.01
2018-07-11T04:04:30.411Z,15.93
2018-07-11T04:06:59.363Z,16.07
2018-07-11T04:09:28.025Z,16.35
2018-07-11T04:11:56.668Z,16.31
2018-07-11T04:14:25.750Z,16.65
2018-07-11T04:16:54.365Z,16.61
2018-07-11T04:19:23.022Z,16.65
2018-07-11T04:21:51.784Z,16.85
2018-07-11T04:24:20.443Z,16.81
2018-07-11T04:26:49.056Z,16.72
2018-07-11T04:29:18.153Z,16.77
2018-07-11T04:31:46.859Z,16.65
2018-07-11T04:34:15.648Z,17.07
2018-07-11T04:36:44.737Z,17.20
2018-07-11T04:39:13.352Z,17.08
2018-07-11T04:41:42.140Z,17.33
2018-07-11T04:44:11.420Z,17.31
2018-07-11T04:46:40.146Z,17.33
2018-07-11T04:49:08.843Z,17.34
2018-07-11T04:51:38.195Z,17.10
2018-07-11T04:54:06.920Z,17.03
2018-07-11T04:56:35.496Z,17.27
2018-07-11T04:59:04.442Z,17.39
2018-07-11T05:01:33.320Z,17.15
2018-07-11T05:04:02.135Z,17.30
2018-07-11T05:06:31.281Z,17.35
2018-07-11T05:08:59.856Z,17.44
2018-07-11T05:11:28.559Z,17.53
2018-07-11T05:13:57.381Z,17.43
2018-07-11T05:16:26.089Z,17.69
2018-07-11T05:18:54.809Z,17.33
2018-07-11T05:21:23.824Z,17.56
2018-07-11T05:23:52.364Z,17.71
2018-07-11T05:26:21.120Z,17.78
2018-07-11T05:28:49.911Z,17.99
2018-07-11T05:31:18.556Z,17.94
2018-07-11T05:33:47.208Z,18.11
2018-07-11T05:36:16.193Z,18.14
2018-07-11T05:38:45.037Z,18.62
2018-07-11T05:41:13.804Z,18.57
2018-07-11T05:43:42.533Z,18.72
2018-07-11T05:46:11.108Z,18.65
2018-07-11T05:48:39.701Z,18.71
2018-07-11T05:51:08.872Z,18.73
2018-07-11T05:53:37.579Z,18.69
2018-07-11T05:56:06.327Z,18.89
2018-07-11T05:58:35.252Z,18.96
2018-07-11T06:01:03.817Z,18.86
2018-07-11T06:03:32.380Z,19.12
2018-07-11T06:06:01.299Z,19.19
2018-07-11T06:08:29.963Z,19.14
2018-07-11T06:10:58.637Z,19.27
2018-07-11T06:13:27.344Z,19.41
2018-07-11T06:15:57.611Z,19.33
2018-07-11T06:18:28.008Z,19.40
2018-07-11T06:20:58.264Z,18.99
2018-07-11T06:23:28.195Z,19.02
2018-07-11T06:25:58.296Z,18.79
2018-07-11T06:28:28.444Z,19.30
2018-07-11T06:30:58.797Z,19.30
2018-07-11T06:33:28.956Z,19.20
2018-07-11T06:35:57.689Z,19.18
2018-07-11T06:38:30.693Z,19.15
2018-07-11T06:41:03.794Z,19.68
2018-07-11T06:43:37.466Z,19.96
2018-07-11T06:46:07.642Z,20.14
2018-07-11T06:48:39.169Z,20.03
2018-07-11T06:51:09.258Z,19.86
2018-07-11T06:53:41.547Z,19.87
2018-07-11T06:56:11.154Z,19.78
2018-07-11T06:58:43.864Z,19.96
2018-07-11T07:01:14.783Z,20.01
2018-07-11T07:03:44.787Z,19.96
2018-07-11T07:06:16.681Z,19.90
2018-07-11T07:08:48.654Z,20.05
2018-07-11T07:11:19.080Z,20.61
2018-07-11T07:13:51.049Z,21.34
2018-07-11T07:16:22.207Z,21.26
2018-07-11T07:18:51.252Z,21.83
2018-07-11T07:21:21.928Z,22.65
2018-07-11T07:23:50.760Z,22.67
2018-07-11T07:26:19.562Z,22.87
2018-07-11T07:28:48.313Z,23.09
2018-07-11T07:31:17.252Z,23.41
2018-07-11T07:33:45.894Z,24.08
2018-07-11T07:36:14.528Z,24.36
2018-07-11T07:38:44.936Z,24.63
2018-07-11T07:41:13.580Z,24.78
2018-07-11T07:43:42.800Z,24.90
2018-07-11T07:46:11.556Z,25.08
2018-07-11T07:48:40.158Z,24.56
2018-07-11T07:51:08.933Z,24.78
2018-07-11T07:53:37.787Z,25.00
2018-07-11T07:56:06.680Z,24.32
2018-07-11T07:58:35.291Z,24.93
2018-07-11T08:01:04.339Z,25.15
2018-07-11T08:03:35.041Z,24.98
2018-07-11T08:06:03.676Z,24.95
2018-07-11T08:08:32.436Z,24.42
2018-07-11T08:11:01.104Z,23.49
2018-07-11T08:13:30.021Z,22.89
2018-07-11T08:15:58.819Z,22.63
2018-07-11T08:18:27.509Z,22.28
2018-07-11T08:20:56.698Z,21.78
2018-07-11T08:23:45.854Z,21.61
2018-07-11T08:26:26.144Z,21.54
2018-07-11T08:31:08.392Z,21.43
2018-07-11T08:35:00.169Z,21.32
2018-07-11T08:37:38.831Z,21.41
2018-07-11T08:42:22.543Z,21.58
2018-07-11T08:49:13.540Z,22.27
2018-07-11T08:51:54.497Z,23.06
2018-07-11T08:55:51.376Z,23.38
2018-07-11T08:59:00.312Z,23.54
2018-07-11T09:01:40.311Z,24.03
2018-07-11T09:05:27.438Z,23.87
2018-07-11T09:10:11.988Z,23.41
2018-07-11T09:12:51.912Z,22.68
2018-07-11T09:16:31.850Z,23.13
2018-07-11T09:19:38.196Z,23.02
2018-07-11T09:22:17.174Z,23.94
2018-07-11T09:24:48.688Z,25.28
2018-07-11T09:27:17.596Z,27.12
2018-07-11T09:29:47.322Z,27.64
2018-07-11T09:32:16.469Z,28.07
2018-07-11T09:34:46.747Z,28.37
2018-07-11T09:37:15.516Z,29.13
2018-07-11T09:39:44.731Z,29.67
2018-07-11T09:42:13.505Z,27.85
2018-07-11T09:44:46.322Z,26.65
2018-07-11T09:47:20.363Z,25.95
2018-07-11T09:49:49.069Z,25.33
2018-07-11T09:52:17.666Z,24.72
2018-07-11T09:54:46.529Z,24.48
2018-07-11T09:57:15.119Z,23.71
2018-07-11T09:59:43.787Z,23.45
2018-07-11T10:02:12.443Z,23.37
2018-07-11T10:04:41.707Z,23.99
2018-07-11T10:07:11.104Z,26.07
2018-07-11T10:09:40.041Z,25.96
2018-07-11T10:12:09.140Z,26.59
2018-07-11T10:14:37.814Z,25.60
2018-07-11T10:17:06.428Z,25.38
2018-07-11T10:19:35.007Z,24.85
2018-07-11T10:22:03.710Z,24.19
2018-07-11T10:24:32.456Z,23.68
2018-07-11T10:27:01.104Z,23.07
2018-07-11T10:29:29.650Z,22.84
2018-07-11T10:31:58.452Z,22.65
2018-07-11T10:34:27.065Z,22.27
2018-07-11T10:36:55.765Z,21.89
2018-07-11T10:39:24.649Z,21.97
2018-07-11T10:41:53.542Z,22.14
2018-07-11T10:44:22.079Z,21.78
2018-07-11T10:46:55.575Z,21.95
2018-07-11T10:49:24.288Z,21.90
2018-07-11T10:51:52.861Z,22.13
2018-07-11T10:54:21.695Z,22.41
2018-07-11T10:56:50.682Z,22.55
2018-07-11T10:59:19.524Z,22.53
2018-07-11T11:01:48.324Z,22.85
2018-07-11T11:04:20.713Z,22.82
2018-07-11T11:06:49.462Z,23.16
2018-07-11T11:09:18.307Z,23.60
2018-07-11T11:11:46.887Z,23.71
2018-07-11T11:14:16.108Z,24.09
2018-07-11T11:16:44.979Z,24.38
2018-07-11T11:19:13.684Z,24.54
2018-07-11T11:21:42.571Z,24.10
2018-07-11T11:24:11.193Z,24.38
2018-07-11T11:26:39.848Z,24.21
2018-07-11T11:29:08.723Z,23.77
2018-07-11T11:31:37.593Z,23.72
2018-07-11T11:34:06.543Z,23.91
2018-07-11T11:36:35.517Z,24.27
2018-07-11T11:39:04.705Z,25.01
2018-07-11T11:41:33.440Z,25.79
2018-07-11T11:44:02.978Z,25.71
2018-07-11T11:46:31.623Z,25.76
2018-07-11T11:49:00.375Z,25.72
2018-07-11T11:51:29.092Z,25.17
2018-07-11T11:53:57.848Z,24.73
2018-07-11T11:56:26.481Z,24.51
2018-07-11T11:58:55.331Z,24.11
2018-07-11T12:01:24.236Z,23.90
2018-07-11T12:03:52.939Z,23.44
2018-07-11T12:06:21.743Z,23.22
2018-07-11T12:08:50.279Z,23.02
2018-07-11T12:11:18.916Z,23.15
2018-07-11T12:13:47.716Z,23.53
2018-07-11T12:16:16.363Z,23.66
2018-07-11T12:18:44.920Z,24.14
2018-07-11T12:21:13.778Z,24.58
2018-07-11T12:23:42.389Z,24.64
2018-07-11T12:26:11.540Z,24.77
2018-07-11T12:28:40.223Z,24.80
2018-07-11T12:31:08.879Z,24.53
2018-07-11T12:33:37.723Z,24.34
2018-07-11T12:36:06.463Z,23.81
2018-07-11T12:38:35.378Z,23.57
2018-07-11T12:41:04.030Z,23.48
2018-07-11T12:43:32.830Z,23.06
2018-07-11T12:46:01.572Z,22.94
2018-07-11T12:48:35.878Z,22.45
2018-07-11T12:51:04.607Z,22.54
2018-07-11T12:53:33.319Z,22.50
2018-07-11T12:56:02.017Z,22.45
2018-07-11T12:58:30.736Z,22.42
2018-07-11T13:00:59.367Z,22.52
2018-07-11T13:03:28.180Z,22.62
2018-07-11T13:05:56.819Z,22.31
2018-07-11T13:08:25.486Z,22.70
2018-07-11T13:10:54.147Z,22.49
2018-07-11T13:13:22.920Z,22.62
2018-07-11T13:15:51.597Z,22.43
2018-07-11T13:18:20.455Z,22.27
2018-07-11T13:20:49.123Z,22.17
2018-07-11T13:23:17.872Z,22.09
2018-07-11T13:25:46.588Z,22.25
2018-07-11T13:28:15.290Z,22.07
2018-07-11T13:30:44.081Z,22.17
2018-07-11T13:33:12.946Z,22.42
2018-07-11T13:35:41.623Z,22.59
2018-07-11T13:38:12.589Z,22.59
2018-07-11T13:40:41.575Z,22.62
2018-07-11T13:43:11.451Z,22.89
2018-07-11T13:45:40.355Z,23.11
2018-07-11T13:48:08.971Z,23.44
2018-07-11T13:50:37.651Z,23.83
2018-07-11T13:53:06.311Z,24.37
2018-07-11T13:55:35.052Z,25.44
2018-07-11T13:58:03.748Z,25.63
2018-07-11T14:00:33.712Z,27.45
2018-07-11T14:03:03.349Z,29.33
2018-07-11T14:05:32.215Z,29.31
2018-07-11T14:08:01.029Z,29.05
2018-07-11T14:10:29.631Z,28.02
2018-07-11T14:12:58.705Z,27.54
2018-07-11T14:15:27.756Z,26.93
2018-07-11T14:17:56.583Z,26.62
2018-07-11T14:20:25.238Z,26.54
2018-07-11T14:22:53.834Z,27.23
2018-07-11T14:25:22.700Z,28.91
2018-07-11T14:27:51.788Z,30.18
2018-07-11T14:30:25.556Z,30.49
2018-07-11T14:32:56.606Z,30.70
2018-07-11T14:35:26.355Z,31.47
2018-07-11T14:37:55.072Z,32.24
2018-07-11T14:40:23.888Z,32.81
2018-07-11T14:42:52.627Z,31.50
2018-07-11T14:45:22.023Z,31.79
2018-07-11T14:47:57.987Z,32.39
2018-07-11T14:50:26.560Z,32.62
2018-07-11T14:52:55.379Z,32.27
2018-07-11T14:55:24.024Z,33.57
2018-07-11T14:57:52.698Z,32.51
2018-07-11T15:00:21.260Z,32.45
2018-07-11T15:02:50.192Z,33.07
2018-07-11T15:05:18.912Z,32.44
2018-07-11T15:07:47.600Z,32.61
2018-07-11T15:10:16.436Z,32.57
2018-07-11T15:12:45.173Z,31.67
2018-07-11T15:15:13.811Z,30.65
2018-07-11T15:17:42.644Z,30.30
2018-07-11T15:20:11.392Z,29.21
2018-07-11T15:22:40.222Z,28.22
2018-07-11T15:25:09.213Z,27.86
2018-07-11T15:27:37.932Z,27.26
2018-07-11T15:30:06.527Z,26.69
2018-07-11T15:32:35.663Z,26.89
2018-07-11T15:35:05.115Z,27.05
2018-07-11T15:37:33.895Z,26.78
2018-07-11T15:40:04.649Z,26.54
2018-07-11T15:42:33.616Z,26.27
2018-07-11T15:45:02.852Z,25.88
2018-07-11T15:47:31.810Z,25.38
2018-07-11T15:50:02.215Z,25.59
2018-07-11T15:52:34.051Z,25.92
2018-07-11T15:55:05.405Z,25.90
2018-07-11T15:57:39.739Z,25.78
2018-07-11T16:00:11.146Z,25.69
2018-07-11T16:02:43.048Z,25.41
2018-07-11T16:05:20.641Z,25.61
2018-07-11T16:07:51.281Z,25.39
2018-07-11T16:10:24.637Z,25.45
2018-07-11T16:12:54.116Z,25.40
2018-07-11T16:15:23.063Z,25.45
2018-07-11T16:17:51.892Z,25.58
2018-07-11T16:20:22.204Z,25.90
2018-07-11T16:22:52.515Z,25.48
2018-07-11T16:25:22.245Z,25.73
2018-07-11T16:27:52.329Z,25.31
2018-07-11T16:30:22.140Z,25.25
2018-07-11T16:32:51.101Z,24.92
2018-07-11T16:35:19.776Z,24.66
2018-07-11T16:37:48.752Z,24.72
2018-07-11T16:40:17.995Z,24.78
2018-07-11T16:42:47.075Z,24.44
2018-07-11T16:45:15.981Z,24.43
2018-07-11T16:47:45.155Z,24.26
2018-07-11T16:50:14.035Z,24.05
2018-07-11T16:52:42.971Z,24.09
2018-07-11T16:55:12.896Z,23.82
2018-07-11T16:57:47.520Z,23.51
2018-07-11T17:00:17.176Z,23.70
2018-07-11T17:02:48.771Z,23.52
2018-07-11T17:05:21.439Z,23.43
2018-07-11T17:07:58.095Z,23.45
2018-07-11T17:10:29.357Z,23.39
2018-07-11T17:13:12.534Z,23.24
2018-07-11T17:15:46.679Z,23.27
2018-07-11T17:18:22.960Z,23.63
2018-07-11T17:20:51.622Z,23.92
2018-07-11T17:23:20.237Z,23.91
2018-07-11T17:25:49.126Z,23.66
2018-07-11T17:28:17.821Z,23.79
2018-07-11T17:30:46.510Z,23.84
2018-07-11T17:33:15.591Z,23.85
2018-07-11T17:35:52.143Z,23.83
2018-07-11T17:38:26.095Z,23.92
2018-07-11T17:40:54.795Z,23.83
2018-07-11T17:43:35.158Z,23.75
2018-07-11T17:46:05.527Z,23.71
2018-07-11T17:48:41.231Z,23.62
2018-07-11T17:51:16.801Z,23.64
2018-07-11T17:53:50.947Z,23.59
2018-07-11T17:56:23.508Z,23.48
2018-07-11T17:58:58.326Z,23.35
2018-07-11T18:01:34.965Z,23.28
2018-07-11T18:05:15.095Z,23.10
2018-07-11T18:07:50.071Z,22.99
2018-07-11T18:10:32.943Z,23.02
2018-07-11T18:13:10.114Z,22.93
2018-07-11T18:16:47.344Z,22.86
2018-07-11T18:21:31.052Z,22.71
2018-07-11T18:24:06.741Z,22.66
2018-07-11T18:26:45.624Z,22.65
2018-07-11T18:29:26.068Z,22.54
2018-07-11T18:32:08.677Z,22.56
2018-07-11T18:34:47.649Z,22.45
2018-07-11T18:37:26.435Z,22.34
2018-07-11T18:40:03.843Z,22.36
2018-07-11T18:43:53.420Z,22.21
2018-07-11T18:46:35.463Z,21.88
2018-07-11T18:50:20.850Z,21.98
2018-07-11T18:52:59.350Z,21.85
2018-07-11T18:55:34.914Z,21.64
2018-07-11T19:00:26.727Z,21.56
2018-07-11T19:03:34.910Z,21.24
2018-07-11T19:06:19.016Z,21.21
2018-07-11T19:09:01.672Z,21.19
2018-07-11T19:11:40.372Z,21.17
2018-07-11T19:14:09.620Z,20.97
2018-07-11T19:16:49.380Z,21.11
2018-07-11T19:19:31.702Z,21.18
2018-07-11T19:22:03.361Z,21.10
2018-07-11T19:25:17.999Z,21.07
2018-07-11T19:28:54.747Z,21.08
2018-07-11T19:31:34.507Z,21.12
2018-07-11T19:34:11.292Z,21.13
2018-07-11T19:36:58.387Z,21.18
2018-07-11T19:39:52.063Z,21.21
2018-07-11T19:42:37.399Z,21.18
2018-07-11T19:45:15.961Z,21.13
2018-07-11T19:47:56.270Z,21.11
2018-07-11T19:50:35.367Z,21.09
2018-07-11T19:54:11.872Z,20.91
2018-07-11T19:56:43.471Z,20.92
2018-07-11T19:59:12.313Z,20.83
2018-07-11T20:01:41.147Z,20.81
2018-07-11T20:04:10.797Z,20.78
2018-07-11T20:06:39.539Z,20.66
2018-07-11T20:09:08.750Z,20.63
2018-07-11T20:11:37.421Z,20.46
2018-07-11T20:14:06.572Z,20.33
2018-07-11T20:16:35.270Z,20.35
2018-07-11T20:19:04.365Z,20.36
2018-07-11T20:21:33.203Z,20.39
2018-07-11T20:24:02.072Z,20.36
2018-07-11T20:26:31.051Z,20.37
2018-07-11T20:28:59.759Z,20.42
2018-07-11T20:31:28.624Z,20.50
2018-07-11T20:33:57.487Z,20.54
2018-07-11T20:36:26.104Z,20.52
2018-07-11T20:38:55.082Z,20.55
2018-07-11T20:41:24.548Z,20.47
2018-07-11T20:43:53.272Z,20.50
2018-07-11T20:46:21.924Z,20.36
2018-07-11T20:48:50.519Z,20.14
2018-07-11T20:51:19.348Z,19.94
2018-07-11T20:53:47.956Z,20.04
2018-07-11T20:56:17.088Z,20.04
2018-07-11T20:58:56.905Z,20.01
2018-07-11T21:01:37.040Z,19.99
2018-07-11T21:06:19.511Z,20.00
2018-07-11T21:09:00.700Z,19.99
2018-07-11T21:12:46.694Z,19.98
2018-07-11T21:15:58.779Z,19.89
2018-07-11T21:18:42.610Z,19.98
2018-07-11T21:21:11.627Z,19.97
2018-07-11T21:23:40.354Z,19.93
2018-07-11T21:26:08.907Z,19.89
2018-07-11T21:28:37.704Z,19.88
2018-07-11T21:31:06.504Z,19.74
2018-07-11T21:33:35.155Z,19.63
2018-07-11T21:36:03.955Z,19.67
2018-07-11T21:38:32.676Z,19.68
2018-07-11T21:41:01.264Z,19.64
2018-07-11T21:43:30.291Z,19.48
2018-07-11T21:45:58.931Z,19.53
2018-07-11T21:48:28.163Z,19.42
2018-07-11T21:50:56.743Z,19.38
2018-07-11T21:53:25.419Z,19.31
2018-07-11T21:55:53.981Z,19.09
2018-07-11T21:58:23.199Z,19.10
2018-07-11T22:00:52.203Z,19.14
2018-07-11T22:03:20.772Z,18.80
2018-07-11T22:05:49.465Z,18.91
2018-07-11T22:08:18.115Z,18.66
2018-07-11T22:10:46.850Z,18.81
2018-07-11T22:13:15.626Z,18.95
2018-07-11T22:15:44.180Z,18.93
2018-07-11T22:18:24.297Z,19.02
2018-07-11T22:20:51.596Z,18.97
2018-07-11T22:23:18.899Z,18.99
2018-07-11T22:25:46.329Z,18.74
2018-07-11T22:28:13.748Z,18.81
2018-07-11T22:30:41.052Z,19.00
2018-07-11T22:33:08.521Z,18.91
2018-07-11T22:35:35.957Z,19.03
2018-07-11T22:38:03.249Z,18.93
2018-07-11T22:40:30.706Z,19.01
2018-07-11T22:42:58.327Z,18.75
2018-07-11T22:45:25.608Z,18.36
2018-07-11T22:47:53.570Z,18.47
2018-07-11T22:50:20.936Z,18.68
2018-07-11T22:52:48.291Z,18.57
2018-07-11T22:55:15.835Z,18.65
2018-07-11T22:57:43.131Z,18.63
2018-07-11T23:00:10.431Z,18.35
2018-07-11T23:02:38.012Z,18.48
2018-07-11T23:05:05.312Z,18.59
2018-07-11T23:07:32.780Z,18.46
2018-07-11T23:10:00.267Z,18.54
2018-07-11T23:12:27.543Z,18.58
2018-07-11T23:14:54.903Z,18.48
2018-07-11T23:17:22.227Z,18.45
2018-07-11T23:19:49.602Z,18.49
2018-07-11T23:22:16.913Z,18.31
2018-07-11T23:24:44.317Z,18.20
2018-07-11T23:27:11.659Z,18.15
2018-07-11T23:29:38.948Z,18.28
2018-07-11T23:32:06.288Z,18.07
2018-07-11T23:34:33.575Z,18.11
2018-07-11T23:37:00.944Z,18.20
2018-07-11T23:39:28.516Z,18.22
2018-07-11T23:41:55.810Z,18.25
2018-07-11T23:44:23.196Z,18.28
2018-07-11T23:46:50.696Z,18.39
2018-07-11T23:49:18.203Z,18.28
2018-07-11T23:51:45.620Z,18.36
2018-07-11T23:54:12.939Z,18.31
2018-07-11T23:56:40.331Z,18.31
2018-07-11T23:59:07.629Z,18.30
